createdAt,value
2022-12-06T00:00:27.466Z,6.03
2022-12-06T00:01:08.678Z,6.15
2022-12-06T00:01:41.671Z,5.60
2022-12-06T00:02:13.543Z,5.55
2022-12-06T00:02:45.106Z,5.40
2022-12-06T00:03:16.619Z,5.55
2022-12-06T00:03:51.494Z,5.43
2022-12-06T00:04:22.930Z,4.80
2022-12-06T00:04:54.350Z,6.10
2022-12-06T00:05:25.770Z,6.20
2022-12-06T00:06:07.497Z,5.70
2022-12-06T00:06:40.630Z,5.63
2022-12-06T00:07:12.105Z,5.60
2022-12-06T00:07:43.640Z,6.03
2022-12-06T00:08:15.082Z,5.27
2022-12-06T00:08:46.977Z,5.82
2022-12-06T00:09:23.184Z,5.68
2022-12-06T00:09:54.621Z,5.03
2022-12-06T00:10:26.026Z,6.20
2022-12-06T00:11:08.207Z,5.40
2022-12-06T00:11:39.672Z,5.60
2022-12-06T00:12:11.113Z,5.38
2022-12-06T00:12:42.494Z,5.32
2022-12-06T00:13:13.906Z,6.15
2022-12-06T00:13:45.592Z,5.50
2022-12-06T00:14:17.427Z,5.93
2022-12-06T00:14:48.813Z,6.28
2022-12-06T00:15:20.199Z,6.13
2022-12-06T00:15:51.637Z,5.32
2022-12-06T00:16:23.794Z,5.85
2022-12-06T00:16:55.403Z,4.88
2022-12-06T00:17:27.231Z,5.65
2022-12-06T00:17:58.710Z,5.65
2022-12-06T00:18:30.572Z,5.32
2022-12-06T00:19:02.160Z,5.80
2022-12-06T00:19:33.601Z,5.68
2022-12-06T00:20:05.682Z,5.78
2022-12-06T00:20:37.132Z,5.28
2022-12-06T00:21:10.412Z,6.05
2022-12-06T00:21:42.033Z,5.47
2022-12-06T00:22:13.503Z,5.82
2022-12-06T00:22:45.041Z,5.65
2022-12-06T00:23:16.468Z,6.30
2022-12-06T00:23:49.542Z,5.50
2022-12-06T00:24:21.764Z,5.85
2022-12-06T00:24:53.291Z,5.45
2022-12-06T00:25:24.730Z,6.15
2022-12-06T00:25:56.055Z,6.00
2022-12-06T00:26:28.434Z,5.57
2022-12-06T00:26:59.874Z,5.82
2022-12-06T00:27:31.294Z,5.30
2022-12-06T00:28:02.859Z,6.00
2022-12-06T00:28:34.722Z,6.50
2022-12-06T00:29:06.756Z,5.47
2022-12-06T00:29:38.271Z,4.78
2022-12-06T00:30:09.998Z,6.40
2022-12-06T00:30:41.498Z,6.18
2022-12-06T00:31:17.177Z,5.13
2022-12-06T00:31:49.481Z,5.50
2022-12-06T00:32:21.035Z,5.20
2022-12-06T00:32:52.580Z,6.32
2022-12-06T00:33:26.390Z,4.90
2022-12-06T00:33:58.096Z,5.85
2022-12-06T00:34:29.604Z,6.00
2022-12-06T00:35:01.048Z,5.75
2022-12-06T00:35:32.527Z,5.38
2022-12-06T00:36:09.817Z,5.95
2022-12-06T00:36:41.957Z,5.50
2022-12-06T00:37:13.446Z,5.47
2022-12-06T00:37:44.933Z,5.78
2022-12-06T00:38:16.370Z,6.53
2022-12-06T00:38:48.025Z,5.63
2022-12-06T00:39:19.696Z,5.50
2022-12-06T00:39:51.115Z,6.50
2022-12-06T00:40:22.633Z,6.15
2022-12-06T00:41:05.070Z,5.25
2022-12-06T00:41:36.565Z,5.68
2022-12-06T00:42:08.007Z,5.60
2022-12-06T00:42:39.371Z,5.88
2022-12-06T00:43:10.782Z,6.10
2022-12-06T00:43:42.694Z,6.03
2022-12-06T00:44:14.114Z,5.32
2022-12-06T00:44:45.621Z,5.68
2022-12-06T00:45:17.062Z,5.60
2022-12-06T00:45:48.634Z,5.45
2022-12-06T00:46:22.142Z,6.43
2022-12-06T00:46:53.651Z,5.80
2022-12-06T00:47:25.106Z,5.70
2022-12-06T00:47:56.593Z,6.05
2022-12-06T00:48:28.337Z,5.88
2022-12-06T00:49:01.123Z,5.75
2022-12-06T00:49:32.629Z,6.15
2022-12-06T00:50:04.445Z,5.95
2022-12-06T00:50:35.819Z,5.95
2022-12-06T00:51:07.433Z,6.07
2022-12-06T00:51:39.465Z,5.90
2022-12-06T00:52:10.855Z,5.78
2022-12-06T00:52:42.316Z,5.88
2022-12-06T00:53:13.726Z,5.93
2022-12-06T00:53:45.922Z,6.20
2022-12-06T00:54:17.364Z,5.25
2022-12-06T00:54:48.782Z,5.65
2022-12-06T00:55:20.232Z,5.50
2022-12-06T00:55:51.673Z,7.07
2022-12-06T00:56:23.481Z,5.32
2022-12-06T00:56:54.962Z,6.05
2022-12-06T00:57:26.552Z,6.20
2022-12-06T00:57:57.931Z,6.57
2022-12-06T00:58:29.469Z,6.10
2022-12-06T00:59:00.966Z,5.45
2022-12-06T00:59:32.396Z,5.50
2022-12-06T01:00:04.278Z,6.10
2022-12-06T01:00:35.755Z,5.90
2022-12-06T01:01:15.085Z,5.50
2022-12-06T01:01:49.029Z,6.03
2022-12-06T01:02:20.492Z,4.88
2022-12-06T01:02:51.902Z,5.40
2022-12-06T01:03:23.625Z,6.15
2022-12-06T01:03:56.819Z,6.40
2022-12-06T01:04:28.296Z,5.35
2022-12-06T01:04:59.796Z,5.57
2022-12-06T01:05:31.633Z,6.32
2022-12-06T01:06:04.891Z,5.95
2022-12-06T01:06:37.219Z,6.20
2022-12-06T01:07:08.710Z,5.43
2022-12-06T01:07:40.285Z,5.63
2022-12-06T01:08:12.068Z,6.18
2022-12-06T01:08:43.737Z,5.97
2022-12-06T01:09:15.265Z,6.05
2022-12-06T01:09:46.655Z,6.22
2022-12-06T01:10:18.190Z,6.35
2022-12-06T01:10:51.391Z,6.53
2022-12-06T01:11:23.230Z,5.10
2022-12-06T01:11:54.647Z,5.55
2022-12-06T01:12:26.198Z,5.65
2022-12-06T01:12:57.644Z,6.45
2022-12-06T01:13:29.221Z,6.03
2022-12-06T01:14:00.750Z,6.15
2022-12-06T01:14:32.121Z,5.85
2022-12-06T01:15:03.688Z,5.68
2022-12-06T01:15:38.113Z,5.70
2022-12-06T01:16:11.340Z,6.65
2022-12-06T01:16:42.977Z,5.65
2022-12-06T01:17:14.453Z,6.05
2022-12-06T01:17:45.948Z,5.80
2022-12-06T01:18:17.405Z,5.72
2022-12-06T01:18:51.582Z,6.05
2022-12-06T01:19:26.053Z,5.82
2022-12-06T01:19:57.779Z,6.00
2022-12-06T01:20:29.472Z,6.40
2022-12-06T01:21:07.723Z,5.85
2022-12-06T01:21:39.202Z,5.88
2022-12-06T01:22:10.647Z,6.35
2022-12-06T01:22:42.041Z,6.10
2022-12-06T01:23:13.967Z,5.82
2022-12-06T01:23:45.693Z,6.25
2022-12-06T01:24:17.173Z,5.93
2022-12-06T01:24:48.568Z,5.65
2022-12-06T01:25:20.026Z,6.28
2022-12-06T01:25:52.222Z,5.90
2022-12-06T01:26:25.215Z,5.60
2022-12-06T01:26:56.625Z,5.32
2022-12-06T01:27:28.050Z,5.97
2022-12-06T01:28:00.061Z,5.78
2022-12-06T01:28:31.536Z,6.22
2022-12-06T01:29:03.051Z,6.18
2022-12-06T01:29:34.528Z,5.95
2022-12-06T01:30:06.299Z,6.22
2022-12-06T01:30:39.544Z,6.32
2022-12-06T01:31:11.587Z,6.38
2022-12-06T01:31:43.086Z,6.03
2022-12-06T01:32:14.615Z,7.03
2022-12-06T01:32:46.081Z,6.15
2022-12-06T01:33:17.561Z,6.65
2022-12-06T01:33:49.076Z,6.07
2022-12-06T01:34:20.466Z,5.93
2022-12-06T01:34:51.866Z,6.30
2022-12-06T01:35:23.299Z,6.88
2022-12-06T01:35:54.728Z,6.60
2022-12-06T01:36:26.587Z,6.25
2022-12-06T01:36:58.058Z,5.88
2022-12-06T01:37:29.584Z,5.75
2022-12-06T01:38:05.999Z,6.07
2022-12-06T01:38:37.709Z,6.00
2022-12-06T01:39:09.182Z,6.15
2022-12-06T01:39:40.556Z,6.50
2022-12-06T01:40:12.322Z,5.47
2022-12-06T01:40:45.255Z,5.55
2022-12-06T01:41:19.493Z,6.22
2022-12-06T01:41:50.977Z,6.38
2022-12-06T01:42:22.493Z,5.28
2022-12-06T01:42:53.917Z,5.22
2022-12-06T01:43:43.935Z,6.18
2022-12-06T01:44:33.910Z,5.70
2022-12-06T01:45:05.597Z,5.25
2022-12-06T01:45:37.491Z,6.32
2022-12-06T01:46:12.163Z,6.05
2022-12-06T01:46:44.827Z,6.05
2022-12-06T01:47:22.027Z,7.20
2022-12-06T01:47:53.650Z,6.07
2022-12-06T01:48:26.320Z,6.38
2022-12-06T01:49:08.528Z,5.60
2022-12-06T01:49:41.330Z,5.73
2022-12-06T01:50:13.001Z,6.13
2022-12-06T01:50:44.444Z,6.57
2022-12-06T01:51:16.161Z,6.45
2022-12-06T01:51:59.092Z,6.00
2022-12-06T01:52:46.451Z,5.60
2022-12-06T01:53:21.381Z,6.35
2022-12-06T01:53:58.183Z,6.35
2022-12-06T01:54:29.670Z,6.25
2022-12-06T01:55:01.504Z,5.88
2022-12-06T01:55:35.227Z,5.88
2022-12-06T01:56:07.466Z,5.80
2022-12-06T01:56:40.006Z,6.20
2022-12-06T01:57:13.288Z,5.95
2022-12-06T01:57:45.092Z,6.18
2022-12-06T01:58:18.335Z,7.47
2022-12-06T01:58:51.934Z,6.03
2022-12-06T01:59:24.032Z,6.18
2022-12-06T01:59:55.512Z,6.10
2022-12-06T02:00:26.967Z,5.93
2022-12-06T02:00:58.504Z,6.32
2022-12-06T02:01:30.212Z,5.78
2022-12-06T02:02:02.106Z,6.47
2022-12-06T02:02:33.688Z,5.70
2022-12-06T02:03:09.117Z,7.93
2022-12-06T02:03:40.738Z,6.18
2022-12-06T02:04:12.485Z,6.40
2022-12-06T02:04:44.400Z,6.35
2022-12-06T02:05:16.750Z,5.90
2022-12-06T02:05:48.549Z,6.55
2022-12-06T02:06:20.213Z,6.07
2022-12-06T02:06:52.659Z,6.50
2022-12-06T02:07:24.659Z,6.20
2022-12-06T02:07:56.878Z,6.05
2022-12-06T02:08:28.713Z,6.15
2022-12-06T02:09:01.236Z,5.55
2022-12-06T02:09:33.587Z,6.27
2022-12-06T02:10:05.663Z,5.88
2022-12-06T02:10:37.525Z,5.95
2022-12-06T02:11:09.028Z,6.60
2022-12-06T02:11:40.456Z,6.80
2022-12-06T02:12:13.060Z,5.95
2022-12-06T02:12:44.561Z,5.80
2022-12-06T02:13:16.107Z,6.38
2022-12-06T02:13:47.736Z,6.03
2022-12-06T02:14:20.830Z,5.78
2022-12-06T02:14:53.639Z,6.93
2022-12-06T02:15:29.418Z,6.72
2022-12-06T02:16:16.199Z,6.60
2022-12-06T02:17:01.580Z,7.00
2022-12-06T02:17:48.430Z,6.13
2022-12-06T02:18:25.034Z,5.80
2022-12-06T02:19:08.458Z,6.00
2022-12-06T02:19:41.956Z,6.35
2022-12-06T02:20:29.118Z,6.60
2022-12-06T02:21:06.193Z,6.82
2022-12-06T02:21:57.784Z,5.65
2022-12-06T02:22:29.223Z,6.20
2022-12-06T02:23:09.817Z,5.63
2022-12-06T02:23:50.199Z,5.97
2022-12-06T02:24:36.540Z,5.88
2022-12-06T02:25:23.972Z,5.63
2022-12-06T02:25:55.403Z,6.35
2022-12-06T02:26:29.568Z,6.78
2022-12-06T02:27:21.082Z,6.05
2022-12-06T02:28:12.675Z,6.35
2022-12-06T02:28:44.023Z,6.50
2022-12-06T02:29:30.289Z,6.15
2022-12-06T02:30:07.878Z,6.03
2022-12-06T02:31:05.703Z,6.45
2022-12-06T02:31:40.489Z,6.55
2022-12-06T02:32:21.250Z,6.53
2022-12-06T02:32:55.724Z,6.50
2022-12-06T02:33:39.143Z,6.93
2022-12-06T02:34:16.308Z,6.07
2022-12-06T02:34:53.725Z,6.60
2022-12-06T02:35:25.153Z,5.85
2022-12-06T02:36:06.430Z,6.45
2022-12-06T02:36:44.016Z,7.25
2022-12-06T02:37:41.611Z,6.35
2022-12-06T02:38:20.785Z,7.07
2022-12-06T02:38:53.955Z,6.95
2022-12-06T02:39:37.123Z,5.93
2022-12-06T02:40:12.046Z,5.40
2022-12-06T02:40:48.814Z,6.85
2022-12-06T02:41:38.218Z,7.22
2022-12-06T02:42:13.238Z,6.22
2022-12-06T02:42:51.703Z,6.47
2022-12-06T02:43:28.205Z,6.53
2022-12-06T02:44:02.393Z,5.95
2022-12-06T02:44:36.831Z,6.88
2022-12-06T02:45:13.254Z,6.68
2022-12-06T02:45:55.777Z,6.65
2022-12-06T02:46:29.745Z,6.20
2022-12-06T02:47:01.658Z,6.43
2022-12-06T02:47:35.188Z,6.93
2022-12-06T02:48:08.620Z,6.17
2022-12-06T02:48:40.831Z,7.15
2022-12-06T02:49:13.394Z,7.28
2022-12-06T02:49:46.301Z,6.60
2022-12-06T02:50:19.246Z,6.85
2022-12-06T02:50:57.085Z,6.65
2022-12-06T02:51:30.047Z,6.35
2022-12-06T02:52:02.615Z,6.95
2022-12-06T02:52:36.809Z,6.68
2022-12-06T02:53:10.869Z,7.72
2022-12-06T02:53:44.774Z,6.75
2022-12-06T02:54:17.000Z,6.63
2022-12-06T02:54:49.519Z,7.30
2022-12-06T02:55:22.242Z,6.05
2022-12-06T02:55:53.890Z,5.93
2022-12-06T02:56:26.196Z,6.37
2022-12-06T02:56:57.680Z,7.13
2022-12-06T02:57:55.625Z,7.80
2022-12-06T02:58:27.031Z,7.07
2022-12-06T02:58:58.559Z,7.10
2022-12-06T02:59:29.891Z,6.82
2022-12-06T03:00:01.914Z,6.90
2022-12-06T03:00:44.089Z,6.18
2022-12-06T03:01:18.143Z,6.85
2022-12-06T03:01:52.798Z,7.40
2022-12-06T03:02:24.385Z,6.43
2022-12-06T03:03:00.587Z,6.95
2022-12-06T03:03:50.921Z,7.68
2022-12-06T03:04:45.456Z,7.32
2022-12-06T03:05:22.701Z,7.10
2022-12-06T03:06:02.990Z,8.07
2022-12-06T03:06:34.359Z,8.05
2022-12-06T03:07:28.213Z,7.20
2022-12-06T03:08:01.365Z,6.32
2022-12-06T03:08:41.903Z,6.82
2022-12-06T03:09:32.023Z,7.07
2022-12-06T03:10:03.777Z,6.63
2022-12-06T03:10:46.764Z,6.70
2022-12-06T03:11:18.644Z,7.30
2022-12-06T03:12:10.285Z,7.55
2022-12-06T03:13:00.100Z,7.25
2022-12-06T03:13:38.598Z,6.80
2022-12-06T03:14:14.992Z,7.68
2022-12-06T03:14:52.410Z,6.80
2022-12-06T03:15:29.610Z,6.67
2022-12-06T03:16:04.989Z,6.90
2022-12-06T03:16:42.660Z,7.70
2022-12-06T03:17:22.316Z,7.10
2022-12-06T03:17:57.323Z,6.78
2022-12-06T03:18:38.322Z,6.72
2022-12-06T03:19:18.569Z,7.20
2022-12-06T03:19:53.900Z,7.40
2022-12-06T03:20:48.587Z,6.57
2022-12-06T03:21:23.606Z,6.93
2022-12-06T03:22:00.531Z,6.72
2022-12-06T03:22:39.406Z,6.50
2022-12-06T03:23:16.056Z,6.32
2022-12-06T03:23:49.242Z,6.90
2022-12-06T03:24:21.786Z,6.53
2022-12-06T03:24:53.549Z,6.70
2022-12-06T03:25:25.569Z,6.72
2022-12-06T03:25:58.515Z,6.53
2022-12-06T03:26:31.227Z,7.10
2022-12-06T03:27:14.136Z,6.90
2022-12-06T03:27:46.740Z,6.47
2022-12-06T03:28:20.388Z,6.82
2022-12-06T03:28:52.994Z,6.35
2022-12-06T03:29:26.270Z,6.28
2022-12-06T03:29:59.444Z,6.07
2022-12-06T03:30:32.483Z,6.35
2022-12-06T03:31:07.793Z,6.43
2022-12-06T03:31:40.977Z,6.70
2022-12-06T03:32:14.263Z,6.83
2022-12-06T03:32:47.743Z,8.00
2022-12-06T03:33:21.083Z,6.53
2022-12-06T03:33:58.157Z,6.15
2022-12-06T03:34:34.851Z,6.50
2022-12-06T03:35:08.302Z,6.32
2022-12-06T03:35:40.710Z,6.28
2022-12-06T03:36:12.862Z,6.47
2022-12-06T03:36:45.475Z,6.72
2022-12-06T03:37:20.353Z,6.65
2022-12-06T03:37:55.269Z,6.82
2022-12-06T03:38:46.889Z,6.15
2022-12-06T03:39:36.736Z,6.53
2022-12-06T03:40:12.473Z,6.10
2022-12-06T03:40:45.214Z,6.85
2022-12-06T03:41:19.246Z,6.57
2022-12-06T03:41:54.075Z,7.22
2022-12-06T03:42:25.603Z,6.60
2022-12-06T03:42:57.664Z,6.82
2022-12-06T03:43:29.265Z,6.43
2022-12-06T03:44:00.782Z,6.78
2022-12-06T03:44:33.293Z,7.10
2022-12-06T03:45:05.356Z,6.55
2022-12-06T03:45:43.260Z,6.72
2022-12-06T03:46:17.509Z,6.10
2022-12-06T03:46:50.047Z,6.53
2022-12-06T03:47:26.288Z,6.20
2022-12-06T03:48:05.010Z,6.93
2022-12-06T03:48:40.714Z,6.95
2022-12-06T03:49:14.579Z,6.63
2022-12-06T03:49:54.429Z,6.47
2022-12-06T03:50:38.587Z,6.20
2022-12-06T03:51:18.952Z,5.70
2022-12-06T03:51:50.771Z,6.70
2022-12-06T03:52:23.176Z,6.63
2022-12-06T03:52:54.769Z,6.05
2022-12-06T03:53:26.356Z,6.63
2022-12-06T03:53:59.362Z,6.22
2022-12-06T03:54:30.886Z,6.78
2022-12-06T03:55:02.348Z,6.00
2022-12-06T03:55:33.836Z,5.45
2022-12-06T03:56:05.425Z,6.23
2022-12-06T03:56:37.744Z,6.15
2022-12-06T03:57:10.052Z,5.95
2022-12-06T03:57:41.484Z,6.68
2022-12-06T03:58:13.333Z,6.43
2022-12-06T03:58:44.758Z,5.93
2022-12-06T03:59:16.610Z,5.72
2022-12-06T03:59:48.029Z,6.20
2022-12-06T04:00:19.944Z,6.28
2022-12-06T04:00:51.329Z,6.15
2022-12-06T04:01:23.173Z,6.38
2022-12-06T04:01:54.896Z,5.82
2022-12-06T04:02:26.356Z,5.95
2022-12-06T04:02:57.801Z,6.18
2022-12-06T04:03:29.361Z,5.13
2022-12-06T04:04:00.872Z,5.60
2022-12-06T04:04:32.419Z,5.68
2022-12-06T04:05:06.737Z,6.18
2022-12-06T04:05:38.133Z,5.43
2022-12-06T04:06:09.774Z,5.65
2022-12-06T04:06:41.290Z,6.32
2022-12-06T04:07:12.727Z,6.03
2022-12-06T04:07:44.211Z,5.68
2022-12-06T04:08:15.718Z,5.97
2022-12-06T04:08:47.278Z,5.80
2022-12-06T04:09:18.694Z,6.32
2022-12-06T04:09:50.060Z,6.68
2022-12-06T04:10:21.456Z,6.55
2022-12-06T04:10:52.886Z,6.03
2022-12-06T04:11:24.329Z,5.20
2022-12-06T04:11:55.921Z,5.32
2022-12-06T04:12:27.368Z,6.20
2022-12-06T04:12:58.844Z,6.20
2022-12-06T04:13:30.374Z,6.03
2022-12-06T04:14:01.714Z,6.43
2022-12-06T04:14:33.225Z,6.70
2022-12-06T04:15:05.672Z,5.68
2022-12-06T04:15:38.162Z,6.73
2022-12-06T04:16:10.234Z,5.90
2022-12-06T04:16:41.872Z,6.13
2022-12-06T04:17:13.320Z,7.43
2022-12-06T04:17:44.735Z,5.85
2022-12-06T04:18:16.451Z,6.57
2022-12-06T04:18:47.967Z,6.53
2022-12-06T04:19:19.415Z,6.18
2022-12-06T04:19:52.193Z,6.28
2022-12-06T04:20:24.140Z,6.38
2022-12-06T04:20:57.732Z,6.47
2022-12-06T04:21:29.160Z,7.05
2022-12-06T04:22:00.562Z,7.18
2022-12-06T04:22:31.999Z,6.63
2022-12-06T04:23:03.468Z,6.47
2022-12-06T04:23:39.107Z,6.10
2022-12-06T04:24:10.503Z,6.05
2022-12-06T04:24:41.930Z,6.72
2022-12-06T04:25:13.426Z,6.30
2022-12-06T04:25:45.075Z,6.97
2022-12-06T04:26:21.054Z,6.65
2022-12-06T04:26:52.443Z,6.65
2022-12-06T04:27:23.821Z,6.43
2022-12-06T04:27:55.259Z,6.32
2022-12-06T04:28:26.696Z,6.03
2022-12-06T04:28:58.190Z,6.40
2022-12-06T04:29:29.575Z,6.40
2022-12-06T04:30:01.293Z,6.78
2022-12-06T04:30:32.961Z,6.20
2022-12-06T04:31:04.507Z,6.90
2022-12-06T04:31:36.787Z,6.72
2022-12-06T04:32:08.272Z,6.80
2022-12-06T04:32:39.720Z,6.50
2022-12-06T04:33:11.321Z,5.88
2022-12-06T04:33:42.824Z,6.47
2022-12-06T04:34:14.664Z,6.85
2022-12-06T04:34:46.053Z,6.90
2022-12-06T04:35:17.473Z,6.32
2022-12-06T04:35:48.938Z,6.43
2022-12-06T04:36:20.464Z,6.72
2022-12-06T04:36:52.059Z,5.85
2022-12-06T04:37:26.323Z,6.50
2022-12-06T04:37:58.523Z,6.95
2022-12-06T04:38:30.110Z,6.97
2022-12-06T04:39:01.836Z,7.38
2022-12-06T04:39:33.584Z,7.45
2022-12-06T04:40:05.407Z,6.10
2022-12-06T04:40:36.876Z,6.40
2022-12-06T04:41:08.837Z,5.88
2022-12-06T04:41:40.247Z,6.90
2022-12-06T04:42:12.115Z,7.30
2022-12-06T04:42:43.612Z,6.97
2022-12-06T04:43:15.054Z,6.50
2022-12-06T04:43:46.422Z,6.75
2022-12-06T04:44:17.812Z,6.65
2022-12-06T04:44:49.250Z,6.65
2022-12-06T04:45:20.643Z,6.35
2022-12-06T04:45:52.070Z,6.55
2022-12-06T04:46:23.586Z,6.20
2022-12-06T04:46:55.102Z,6.60
2022-12-06T04:47:27.045Z,6.68
2022-12-06T04:47:58.482Z,6.75
2022-12-06T04:48:29.878Z,7.00
2022-12-06T04:49:01.354Z,6.03
2022-12-06T04:49:33.008Z,6.70
2022-12-06T04:50:04.618Z,7.63
2022-12-06T04:50:36.084Z,6.88
2022-12-06T04:51:07.537Z,6.85
2022-12-06T04:51:39.024Z,7.47
2022-12-06T04:52:10.852Z,6.78
2022-12-06T04:52:42.295Z,6.00
2022-12-06T04:53:13.788Z,6.43
2022-12-06T04:53:45.224Z,6.27
2022-12-06T04:54:16.670Z,5.82
2022-12-06T04:54:48.079Z,6.70
2022-12-06T04:55:19.428Z,6.55
2022-12-06T04:55:50.806Z,5.70
2022-12-06T04:56:22.196Z,7.25
2022-12-06T04:56:53.625Z,6.78
2022-12-06T04:57:25.070Z,7.22
2022-12-06T04:57:56.491Z,6.57
2022-12-06T04:58:27.853Z,7.13
2022-12-06T04:58:59.278Z,6.53
2022-12-06T04:59:30.714Z,7.38
2022-12-06T05:00:02.391Z,6.90
2022-12-06T05:00:34.208Z,6.45
2022-12-06T05:01:05.821Z,6.90
2022-12-06T05:01:37.273Z,6.63
2022-12-06T05:02:13.042Z,7.53
2022-12-06T05:02:44.716Z,8.25
2022-12-06T05:03:16.370Z,7.90
2022-12-06T05:03:47.848Z,7.50
2022-12-06T05:04:19.764Z,6.80
2022-12-06T05:04:51.220Z,7.37
2022-12-06T05:05:22.673Z,6.43
2022-12-06T05:05:54.077Z,7.50
2022-12-06T05:06:25.658Z,6.65
2022-12-06T05:06:57.054Z,7.93
2022-12-06T05:07:28.502Z,7.18
2022-12-06T05:08:00.131Z,7.60
2022-12-06T05:08:31.629Z,8.00
2022-12-06T05:09:04.452Z,7.55
2022-12-06T05:09:35.969Z,7.20
2022-12-06T05:10:07.776Z,7.50
2022-12-06T05:10:39.452Z,7.10
2022-12-06T05:11:10.886Z,7.40
2022-12-06T05:11:42.379Z,7.35
2022-12-06T05:12:13.889Z,7.18
2022-12-06T05:12:45.404Z,7.63
2022-12-06T05:13:17.506Z,7.40
2022-12-06T05:13:48.923Z,7.18
2022-12-06T05:14:20.394Z,7.18
2022-12-06T05:14:51.879Z,7.25
2022-12-06T05:15:26.635Z,7.93
2022-12-06T05:16:01.832Z,7.75
2022-12-06T05:16:33.384Z,7.20
2022-12-06T05:17:04.845Z,7.93
2022-12-06T05:17:36.275Z,7.97
2022-12-06T05:18:07.737Z,7.75
2022-12-06T05:18:39.289Z,8.18
2022-12-06T05:19:12.366Z,7.63
2022-12-06T05:19:43.768Z,7.70
2022-12-06T05:20:15.278Z,7.82
2022-12-06T05:20:46.711Z,7.72
2022-12-06T05:21:21.122Z,7.30
2022-12-06T05:21:52.621Z,7.60
2022-12-06T05:22:24.177Z,8.27
2022-12-06T05:22:55.609Z,7.82
2022-12-06T05:23:27.050Z,7.80
2022-12-06T05:23:58.615Z,7.80
2022-12-06T05:24:29.989Z,8.70
2022-12-06T05:25:01.442Z,7.38
2022-12-06T05:25:32.901Z,7.88
2022-12-06T05:26:06.235Z,8.05
2022-12-06T05:26:37.656Z,7.63
2022-12-06T05:27:09.168Z,7.93
2022-12-06T05:27:40.650Z,7.82
2022-12-06T05:28:12.157Z,9.35
2022-12-06T05:28:43.779Z,7.25
2022-12-06T05:29:15.317Z,7.63
2022-12-06T05:29:46.708Z,8.15
2022-12-06T05:30:18.175Z,8.43
2022-12-06T05:30:49.591Z,8.48
2022-12-06T05:31:21.595Z,8.70
2022-12-06T05:31:53.063Z,7.25
2022-12-06T05:32:24.663Z,8.55
2022-12-06T05:32:57.137Z,8.10
2022-12-06T05:33:28.768Z,7.55
2022-12-06T05:34:00.249Z,8.30
2022-12-06T05:34:31.641Z,7.93
2022-12-06T05:35:03.102Z,9.05
2022-12-06T05:35:34.559Z,8.68
2022-12-06T05:36:09.601Z,8.80
2022-12-06T05:36:41.193Z,8.88
2022-12-06T05:37:12.675Z,8.68
2022-12-06T05:37:44.233Z,9.27
2022-12-06T05:38:15.849Z,8.38
2022-12-06T05:38:51.361Z,8.85
2022-12-06T05:39:23.280Z,8.27
2022-12-06T05:39:54.729Z,8.63
2022-12-06T05:40:26.151Z,8.40
2022-12-06T05:40:57.537Z,8.68
2022-12-06T05:41:28.985Z,9.18
2022-12-06T05:42:00.414Z,8.88
2022-12-06T05:42:31.843Z,10.25
2022-12-06T05:43:03.290Z,8.30
2022-12-06T05:43:34.735Z,8.93
2022-12-06T05:44:06.361Z,8.07
2022-12-06T05:44:37.870Z,8.25
2022-12-06T05:45:09.858Z,8.52
2022-12-06T05:45:41.388Z,8.95
2022-12-06T05:46:12.926Z,8.02
2022-12-06T05:46:44.499Z,8.57
2022-12-06T05:47:15.966Z,8.60
2022-12-06T05:47:47.389Z,8.80
2022-12-06T05:48:19.064Z,8.70
2022-12-06T05:48:50.644Z,8.85
2022-12-06T05:49:22.127Z,8.70
2022-12-06T05:49:53.560Z,8.95
2022-12-06T05:50:24.958Z,8.88
2022-12-06T05:50:56.432Z,8.85
2022-12-06T05:51:27.939Z,9.50
2022-12-06T05:52:03.797Z,8.88
2022-12-06T05:52:35.701Z,13.45
2022-12-06T05:53:07.148Z,12.93
2022-12-06T05:53:38.742Z,10.98
2022-12-06T05:54:10.117Z,9.77
2022-12-06T05:54:41.562Z,10.45
2022-12-06T05:55:13.003Z,10.30
2022-12-06T05:55:44.362Z,10.32
2022-12-06T05:56:15.795Z,11.15
2022-12-06T05:56:49.321Z,9.38
2022-12-06T05:57:20.792Z,9.60
2022-12-06T05:57:52.340Z,9.90
2022-12-06T05:58:23.762Z,9.18
2022-12-06T05:58:55.221Z,9.48
2022-12-06T05:59:26.651Z,10.43
2022-12-06T05:59:58.411Z,10.07
2022-12-06T06:00:30.283Z,10.35
2022-12-06T06:01:01.885Z,10.55
2022-12-06T06:01:33.498Z,9.77
2022-12-06T06:02:05.439Z,9.70
2022-12-06T06:02:36.947Z,9.70
2022-12-06T06:03:10.097Z,9.40
2022-12-06T06:03:47.134Z,9.93
2022-12-06T06:04:19.319Z,8.52
2022-12-06T06:04:50.906Z,9.17
2022-12-06T06:05:22.490Z,9.30
2022-12-06T06:05:56.700Z,9.32
2022-12-06T06:06:30.578Z,9.02
2022-12-06T06:07:02.026Z,8.98
2022-12-06T06:07:33.600Z,9.30
2022-12-06T06:08:05.400Z,10.43
2022-12-06T06:08:39.891Z,9.40
2022-12-06T06:09:11.519Z,9.93
2022-12-06T06:09:42.852Z,8.87
2022-12-06T06:10:14.903Z,9.35
2022-12-06T06:10:46.361Z,9.93
2022-12-06T06:11:17.863Z,8.77
2022-12-06T06:11:49.267Z,9.65
2022-12-06T06:12:20.700Z,9.93
2022-12-06T06:12:52.651Z,9.32
2022-12-06T06:13:24.147Z,9.60
2022-12-06T06:13:55.610Z,9.90
2022-12-06T06:14:27.064Z,9.40
2022-12-06T06:14:58.501Z,9.57
2022-12-06T06:15:29.957Z,11.48
2022-12-06T06:16:01.428Z,10.55
2022-12-06T06:16:33.128Z,10.98
2022-12-06T06:17:04.619Z,10.93
2022-12-06T06:17:36.170Z,9.68
2022-12-06T06:18:07.594Z,10.13
2022-12-06T06:18:38.974Z,10.48
2022-12-06T06:19:10.468Z,10.45
2022-12-06T06:19:41.964Z,15.00
2022-12-06T06:20:13.394Z,19.05
2022-12-06T06:20:48.475Z,14.40
2022-12-06T06:21:20.063Z,12.85
2022-12-06T06:21:51.547Z,10.60
2022-12-06T06:22:22.978Z,9.00
2022-12-06T06:22:54.369Z,9.63
2022-12-06T06:23:26.515Z,10.05
2022-12-06T06:23:58.025Z,9.40
2022-12-06T06:24:34.886Z,9.90
2022-12-06T06:25:06.721Z,9.65
2022-12-06T06:25:39.608Z,10.00
2022-12-06T06:26:11.698Z,9.18
2022-12-06T06:26:43.283Z,9.52
2022-12-06T06:27:14.679Z,9.77
2022-12-06T06:27:46.112Z,10.80
2022-12-06T06:28:17.955Z,10.57
2022-12-06T06:28:49.354Z,9.88
2022-12-06T06:29:21.862Z,9.60
2022-12-06T06:29:53.302Z,10.05
2022-12-06T06:30:24.878Z,9.70
2022-12-06T06:31:01.900Z,9.98
2022-12-06T06:31:33.500Z,11.18
2022-12-06T06:32:05.050Z,10.77
2022-12-06T06:32:36.686Z,10.27
2022-12-06T06:33:08.107Z,10.90
2022-12-06T06:33:39.649Z,9.50
2022-12-06T06:34:11.107Z,10.98
2022-12-06T06:34:42.523Z,8.60
2022-12-06T06:35:14.062Z,10.27
2022-12-06T06:35:45.557Z,10.32
2022-12-06T06:36:17.045Z,9.98
2022-12-06T06:36:48.476Z,9.73
2022-12-06T06:37:19.910Z,9.88
2022-12-06T06:37:51.391Z,10.73
2022-12-06T06:38:22.992Z,10.30
2022-12-06T06:38:54.448Z,9.55
2022-12-06T06:39:25.915Z,10.05
2022-12-06T06:39:57.461Z,10.15
2022-12-06T06:40:29.253Z,9.60
2022-12-06T06:41:04.326Z,10.20
2022-12-06T06:41:35.660Z,10.32
2022-12-06T06:42:07.043Z,9.98
2022-12-06T06:42:38.452Z,9.38
2022-12-06T06:43:09.919Z,10.27
2022-12-06T06:43:41.843Z,10.43
2022-12-06T06:44:13.625Z,10.15
2022-12-06T06:44:45.247Z,9.85
2022-12-06T06:45:16.659Z,10.65
2022-12-06T06:45:55.451Z,10.37
2022-12-06T06:46:27.057Z,10.15
2022-12-06T06:46:58.546Z,9.30
2022-12-06T06:47:29.987Z,9.73
2022-12-06T06:48:01.421Z,9.35
2022-12-06T06:48:34.073Z,10.00
2022-12-06T06:49:05.492Z,9.57
2022-12-06T06:49:37.019Z,9.57
2022-12-06T06:50:08.663Z,9.30
2022-12-06T06:50:40.087Z,11.38
2022-12-06T06:51:12.618Z,10.23
2022-12-06T06:51:44.541Z,9.73
2022-12-06T06:52:16.187Z,10.47
2022-12-06T06:52:47.622Z,10.60
2022-12-06T06:53:19.120Z,10.98
2022-12-06T06:53:50.591Z,9.52
2022-12-06T06:54:22.061Z,10.98
2022-12-06T06:54:53.470Z,9.18
2022-12-06T06:55:27.625Z,9.80
2022-12-06T06:55:59.006Z,9.38
2022-12-06T06:56:30.447Z,12.23
2022-12-06T06:57:01.788Z,9.65
2022-12-06T06:57:33.324Z,10.27
2022-12-06T06:58:05.048Z,9.90
2022-12-06T06:58:36.963Z,9.20
2022-12-06T06:59:08.447Z,9.80
2022-12-06T06:59:39.825Z,9.52
2022-12-06T07:00:11.643Z,9.32
2022-12-06T07:00:43.398Z,9.48
2022-12-06T07:01:16.907Z,10.43
2022-12-06T07:01:48.495Z,9.98
2022-12-06T07:02:20.039Z,10.05
2022-12-06T07:02:51.669Z,9.98
2022-12-06T07:03:23.367Z,10.55
2022-12-06T07:03:54.869Z,11.68
2022-12-06T07:04:26.305Z,11.13
2022-12-06T07:04:57.690Z,12.90
2022-12-06T07:05:30.057Z,10.82
2022-12-06T07:06:03.133Z,10.77
2022-12-06T07:06:34.612Z,10.40
2022-12-06T07:07:06.171Z,9.32
2022-12-06T07:07:37.732Z,9.55
2022-12-06T07:08:09.801Z,8.98
2022-12-06T07:08:41.501Z,9.52
2022-12-06T07:09:13.124Z,10.30
2022-12-06T07:09:44.570Z,9.25
2022-12-06T07:10:16.004Z,10.10
2022-12-06T07:10:47.507Z,10.13
2022-12-06T07:11:18.996Z,8.98
2022-12-06T07:11:50.522Z,9.48
2022-12-06T07:12:21.951Z,10.18
2022-12-06T07:12:53.546Z,10.77
2022-12-06T07:13:26.535Z,10.73
2022-12-06T07:13:58.115Z,10.15
2022-12-06T07:14:29.704Z,9.80
2022-12-06T07:15:01.067Z,9.98
2022-12-06T07:15:32.426Z,9.10
2022-12-06T07:16:04.680Z,10.50
2022-12-06T07:16:36.183Z,10.80
2022-12-06T07:17:07.892Z,10.20
2022-12-06T07:17:39.370Z,10.80
2022-12-06T07:18:10.835Z,10.52
2022-12-06T07:18:43.050Z,9.85
2022-12-06T07:19:14.502Z,9.05
2022-12-06T07:19:45.942Z,10.13